Sanibel, FL

6:17 PM EDT on August 03, 2015 (GMT -0400)
IWA on Sanibel Island | | Change Station
CLOSE
Current Station
Personal Weather Station
Location: Sanibel, FL
Elevation: 7 ft
Nearby Weather Stations

Elev 7 ft 26.44 °N, 82.11 °W | Updated 2 minutes ago

Partly Cloudy
Partly Cloudy
85.8 °F
Feels Like 89 °F
N
0.0
Wind Variable Wind from WNW
Gusts 1.0 mph

Today
High -- | Low -- °F
--% Chance of Precip.
Yesterday
High -- | Low -- °F
Precip. -- in
6:54 AM 8:14 PM
Waning Gibbous, 83% visible
Pressure 29.97 in
Visibility 10.0 miles
Clouds Overcast 12000 ft
Heat Index 89 °F
Dew Point 67 °F
Humidity 54%
Rainfall 0.02 in
Snow Depth Not available.
UV 1 out of 12
Pollen .30 out of 12
Air Quality Not available.
Flu Activity Not available.
METAR KFMY 032153Z 31005KT 10SM OVC120 29/18 A2996 RMK AO2 SLP148 T02940183

More Conditions Fewer Conditions

Pressure 29.97 in
Visibility 10.0 miles
Clouds Overcast 12000 ft
Heat Index 89 °F
Dew Point 67 °F
Humidity 54%
Rainfall 0.02 in
Snow Depth Not available.
UV 1 out of 12
Pollen .30 out of 12
Air Quality Not available.
Flu Activity Not available.
METAR KFMY 032153Z 31005KT 10SM OVC120 29/18 A2996 RMK AO2 SLP148 T02940183

More Conditions Fewer Conditions

10-Day Weather Forecast

×

Almanac

Astronomy

Aug. 03, 2015 Rise Set
Actual Time
Civil Twilight
Nautical Twilight
Astronomical Twilight
Moon
Length of Visible Light
Length of Day
Tomorrow will be .
, % of the Moon is Illuminated

Today's Extremes

State Highs State Lows

Community

WunderPhotos

Upload Photos

1,843,782 photos uploaded!

WunderBlogs® & News

Nearby

Air Quality

  Air Quality AQ Index Pollutant
Not available.

Snow Depth

Station Depth Elevation

Earthquake Activity

City Distance Mag. Time & Date
Minimum magnitude displayed is 2.5.

Coastal Water Temperatures

Place Temperature

Stations

Nearby Weather Stations

Station Location Temp. Windchill Dew Point Humidity Wind Precip. Elev Updated Type
                   
Coastal Hazard Statement
Statement as of 11:16 AM EDT on August 03, 2015

... High rip current risk now in effect through late tonight...

* rip current timing... through late tonight.

* Rip current impacts... marine conditions support stronger or
more frequent rip currents. If caught in a rip current... do
not fight it by trying to swim back to shore. Try to get the
attention of lifeguards by calling out or waving your hands.
If you are able or if no help is available... swim parallel to
the beach until the current weakens... and then swim toward
shore.

Precautionary/preparedness actions...

Rip currents are powerful channels of water flowing quickly away
from shore... which occur most often at low spots or breaks in The
Sandbar and in the vicinity of structures such as groins...
jetties and piers. Heed the advice of lifeguards and the beach
patrol. Pay attention to flags and posted signs.




Http://www.Weather.Gov/Tampa